sensor_id;sensor_type;location;lat;lon;timestamp;temperature;humidity
44707;DHT22;30433;45.596;8.408;2022-12-20T00:02:10;0.30;99.90
44707;DHT22;30433;45.596;8.408;2022-12-20T00:08:14;0.60;99.90
44707;DHT22;30433;45.596;8.408;2022-12-20T00:14:15;0.50;99.90
44707;DHT22;30433;45.596;8.408;2022-12-20T00:20:17;0.80;99.90
44707;DHT22;30433;45.596;8.408;2022-12-20T00:26:21;0.60;99.90
44707;DHT22;30433;45.596;8.408;2022-12-20T00:32:26;0.80;99.90
44707;DHT22;30433;45.596;8.408;2022-12-20T00:38:28;0.50;99.90
44707;DHT22;30433;45.596;8.408;2022-12-20T00:44:31;1.00;99.90
44707;DHT22;30433;45.596;8.408;2022-12-20T00:50:33;1.00;99.90
44707;DHT22;30433;45.596;8.408;2022-12-20T00:56:35;0.90;99.90
44707;DHT22;30433;45.596;8.408;2022-12-20T01:02:38;0.50;99.90
44707;DHT22;30433;45.596;8.408;2022-12-20T01:08:40;0.60;99.90
44707;DHT22;30433;45.596;8.408;2022-12-20T01:14:42;0.40;99.90
44707;DHT22;30433;45.596;8.408;2022-12-20T01:20:45;0.50;99.90
44707;DHT22;30433;45.596;8.408;2022-12-20T01:26:47;0.70;99.90
44707;DHT22;30433;45.596;8.408;2022-12-20T01:32:49;0.60;99.90
44707;DHT22;30433;45.596;8.408;2022-12-20T01:38:55;0.70;99.90
44707;DHT22;30433;45.596;8.408;2022-12-20T01:44:58;1.00;99.90
44707;DHT22;30433;45.596;8.408;2022-12-20T01:51:00;0.70;99.90
44707;DHT22;30433;45.596;8.408;2022-12-20T01:57:05;0.90;99.90
44707;DHT22;30433;45.596;8.408;2022-12-20T02:03:08;0.60;99.90
44707;DHT22;30433;45.596;8.408;2022-12-20T02:09:10;0.80;99.90
44707;DHT22;30433;45.596;8.408;2022-12-20T02:15:20;1.00;99.90
44707;DHT22;30433;45.596;8.408;2022-12-20T02:21:27;1.20;99.90
44707;DHT22;30433;45.596;8.408;2022-12-20T02:27:33;1.20;99.90
44707;DHT22;30433;45.596;8.408;2022-12-20T02:33:38;1.10;99.90
44707;DHT22;30433;45.596;8.408;2022-12-20T02:39:42;1.10;99.90
44707;DHT22;30433;45.596;8.408;2022-12-20T02:45:45;1.00;99.90
44707;DHT22;30433;45.596;8.408;2022-12-20T02:51:48;1.00;99.90
44707;DHT22;30433;45.596;8.408;2022-12-20T02:57:54;1.20;99.90
44707;DHT22;30433;45.596;8.408;2022-12-20T03:03:57;1.40;99.90
44707;DHT22;30433;45.596;8.408;2022-12-20T03:10:00;1.20;99.90
44707;DHT22;30433;45.596;8.408;2022-12-20T03:16:02;1.30;99.90
44707;DHT22;30433;45.596;8.408;2022-12-20T03:22:04;1.40;99.90
44707;DHT22;30433;45.596;8.408;2022-12-20T03:28:07;1.20;99.90
44707;DHT22;30433;45.596;8.408;2022-12-20T03:34:09;1.00;99.90
44707;DHT22;30433;45.596;8.408;2022-12-20T03:40:11;1.00;99.90
44707;DHT22;30433;45.596;8.408;2022-12-20T03:46:15;0.80;99.90
44707;DHT22;30433;45.596;8.408;2022-12-20T03:52:16;1.00;99.90
44707;DHT22;30433;45.596;8.408;2022-12-20T03:58:18;1.00;99.90
44707;DHT22;30433;45.596;8.408;2022-12-20T04:04:24;0.90;99.90
44707;DHT22;30433;45.596;8.408;2022-12-20T04:10:26;0.30;99.90
44707;DHT22;30433;45.596;8.408;2022-12-20T04:16:28;0.50;99.90
44707;DHT22;30433;45.596;8.408;2022-12-20T04:22:31;1.00;99.90
44707;DHT22;30433;45.596;8.408;2022-12-20T04:28:33;0.90;99.90
44707;DHT22;30433;45.596;8.408;2022-12-20T04:34:35;1.00;99.90
44707;DHT22;30433;45.596;8.408;2022-12-20T04:40:38;1.10;99.90
44707;DHT22;30433;45.596;8.408;2022-12-20T04:46:40;0.90;99.90
44707;DHT22;30433;45.596;8.408;2022-12-20T04:52:42;1.10;99.90
44707;DHT22;30433;45.596;8.408;2022-12-20T04:59:03;1.10;99.90
44707;DHT22;30433;45.596;8.408;2022-12-20T05:05:05;1.10;99.90
44707;DHT22;30433;45.596;8.408;2022-12-20T05:11:07;1.00;99.90
44707;DHT22;30433;45.596;8.408;2022-12-20T05:17:11;0.90;99.90
44707;DHT22;30433;45.596;8.408;2022-12-20T05:23:13;1.10;99.90
44707;DHT22;30433;45.596;8.408;2022-12-20T05:29:32;0.60;99.90
44707;DHT22;30433;45.596;8.408;2022-12-20T05:35:35;1.20;99.90
44707;DHT22;30433;45.596;8.408;2022-12-20T05:41:37;1.00;99.90
44707;DHT22;30433;45.596;8.408;2022-12-20T05:47:39;0.90;99.90
44707;DHT22;30433;45.596;8.408;2022-12-20T05:53:43;1.10;99.90
44707;DHT22;30433;45.596;8.408;2022-12-20T05:59:45;1.00;99.90
44707;DHT22;30433;45.596;8.408;2022-12-20T06:05:46;1.40;99.90
44707;DHT22;30433;45.596;8.408;2022-12-20T06:11:50;1.20;99.90
44707;DHT22;30433;45.596;8.408;2022-12-20T06:17:52;1.10;99.90
44707;DHT22;30433;45.596;8.408;2022-12-20T06:23:53;1.20;99.90
44707;DHT22;30433;45.596;8.408;2022-12-20T06:29:57;1.30;99.90
44707;DHT22;30433;45.596;8.408;2022-12-20T06:35:59;1.50;99.90
44707;DHT22;30433;45.596;8.408;2022-12-20T06:42:01;1.20;99.90
44707;DHT22;30433;45.596;8.408;2022-12-20T06:48:04;1.30;99.90
44707;DHT22;30433;45.596;8.408;2022-12-20T06:54:06;1.40;99.90
44707;DHT22;30433;45.596;8.408;2022-12-20T07:00:08;1.60;99.90
44707;DHT22;30433;45.596;8.408;2022-12-20T07:06:13;1.20;99.90
44707;DHT22;30433;45.596;8.408;2022-12-20T07:12:15;1.40;99.90
44707;DHT22;30433;45.596;8.408;2022-12-20T07:18:17;1.70;99.90
44707;DHT22;30433;45.596;8.408;2022-12-20T07:24:20;1.40;99.90
44707;DHT22;30433;45.596;8.408;2022-12-20T07:30:22;1.50;99.90
44707;DHT22;30433;45.596;8.408;2022-12-20T07:36:24;1.50;99.90
44707;DHT22;30433;45.596;8.408;2022-12-20T07:42:27;1.60;99.90
44707;DHT22;30433;45.596;8.408;2022-12-20T07:48:29;1.60;99.90
44707;DHT22;30433;45.596;8.408;2022-12-20T07:54:31;1.70;99.90
44707;DHT22;30433;45.596;8.408;2022-12-20T08:00:35;1.90;99.90
44707;DHT22;30433;45.596;8.408;2022-12-20T08:06:37;2.00;99.90
44707;DHT22;30433;45.596;8.408;2022-12-20T08:12:40;1.90;99.90
44707;DHT22;30433;45.596;8.408;2022-12-20T08:18:43;1.80;99.90
44707;DHT22;30433;45.596;8.408;2022-12-20T08:24:45;2.00;99.90
44707;DHT22;30433;45.596;8.408;2022-12-20T08:30:47;2.20;99.90
44707;DHT22;30433;45.596;8.408;2022-12-20T08:36:50;2.30;99.90
44707;DHT22;30433;45.596;8.408;2022-12-20T08:42:52;2.50;99.90
44707;DHT22;30433;45.596;8.408;2022-12-20T08:48:54;2.50;99.90
44707;DHT22;30433;45.596;8.408;2022-12-20T08:54:57;2.60;99.90
44707;DHT22;30433;45.596;8.408;2022-12-20T09:00:59;2.60;99.90
44707;DHT22;30433;45.596;8.408;2022-12-20T09:07:01;2.90;99.90
44707;DHT22;30433;45.596;8.408;2022-12-20T09:13:04;2.90;99.90
44707;DHT22;30433;45.596;8.408;2022-12-20T09:19:06;3.10;99.90
44707;DHT22;30433;45.596;8.408;2022-12-20T09:25:08;3.20;99.90
44707;DHT22;30433;45.596;8.408;2022-12-20T09:31:12;3.20;99.90
44707;DHT22;30433;45.596;8.408;2022-12-20T09:37:14;3.30;99.90
44707;DHT22;30433;45.596;8.408;2022-12-20T09:43:16;3.50;99.90
44707;DHT22;30433;45.596;8.408;2022-12-20T09:49:22;3.70;99.90
44707;DHT22;30433;45.596;8.408;2022-12-20T09:55:27;4.00;99.90
44707;DHT22;30433;45.596;8.408;2022-12-20T10:01:31;4.10;99.90
44707;DHT22;30433;45.596;8.408;2022-12-20T10:07:36;4.20;99.90
44707;DHT22;30433;45.596;8.408;2022-12-20T10:13:46;4.20;99.90
44707;DHT22;30433;45.596;8.408;2022-12-20T10:19:58;4.30;99.90
44707;DHT22;30433;45.596;8.408;2022-12-20T10:26:07;4.40;99.90
44707;DHT22;30433;45.596;8.408;2022-12-20T10:32:12;4.50;99.90
44707;DHT22;30433;45.596;8.408;2022-12-20T10:38:14;4.60;99.90
44707;DHT22;30433;45.596;8.408;2022-12-20T10:44:22;4.70;99.90
44707;DHT22;30433;45.596;8.408;2022-12-20T10:50:24;4.80;99.90
44707;DHT22;30433;45.596;8.408;2022-12-20T10:56:27;5.00;99.90
44707;DHT22;30433;45.596;8.408;2022-12-20T11:02:31;5.10;99.90
44707;DHT22;30433;45.596;8.408;2022-12-20T11:08:33;5.30;99.90
44707;DHT22;30433;45.596;8.408;2022-12-20T11:14:35;5.20;99.90
44707;DHT22;30433;45.596;8.408;2022-12-20T11:20:40;5.40;99.90
44707;DHT22;30433;45.596;8.408;2022-12-20T11:26:56;5.50;99.90
44707;DHT22;30433;45.596;8.408;2022-12-20T11:33:09;5.60;99.90
44707;DHT22;30433;45.596;8.408;2022-12-20T11:39:22;5.70;99.90
44707;DHT22;30433;45.596;8.408;2022-12-20T11:45:30;5.70;99.90
44707;DHT22;30433;45.596;8.408;2022-12-20T11:51:38;5.90;99.90
44707;DHT22;30433;45.596;8.408;2022-12-20T11:57:46;6.00;99.90
44707;DHT22;30433;45.596;8.408;2022-12-20T12:03:52;6.10;99.90
44707;DHT22;30433;45.596;8.408;2022-12-20T12:09:59;6.30;99.90
44707;DHT22;30433;45.596;8.408;2022-12-20T12:16:04;6.30;99.90
44707;DHT22;30433;45.596;8.408;2022-12-20T12:22:08;6.60;99.90
44707;DHT22;30433;45.596;8.408;2022-12-20T12:28:14;6.50;99.90
44707;DHT22;30433;45.596;8.408;2022-12-20T12:34:19;6.80;99.90
44707;DHT22;30433;45.596;8.408;2022-12-20T12:40:30;6.90;99.90
44707;DHT22;30433;45.596;8.408;2022-12-20T12:46:34;7.00;99.90
44707;DHT22;30433;45.596;8.408;2022-12-20T12:52:42;7.20;99.90
44707;DHT22;30433;45.596;8.408;2022-12-20T12:59:08;7.20;99.90
44707;DHT22;30433;45.596;8.408;2022-12-20T13:05:33;7.30;99.90
44707;DHT22;30433;45.596;8.408;2022-12-20T13:11:38;7.30;99.90
44707;DHT22;30433;45.596;8.408;2022-12-20T13:17:44;7.50;99.90
44707;DHT22;30433;45.596;8.408;2022-12-20T13:23:46;7.60;99.90
44707;DHT22;30433;45.596;8.408;2022-12-20T13:42:33;7.70;99.90
44707;DHT22;30433;45.596;8.408;2022-12-20T13:48:38;7.70;99.90
44707;DHT22;30433;45.596;8.408;2022-12-20T13:54:43;7.60;99.90
44707;DHT22;30433;45.596;8.408;2022-12-20T14:00:47;7.90;99.90
44707;DHT22;30433;45.596;8.408;2022-12-20T14:06:50;7.40;99.90
44707;DHT22;30433;45.596;8.408;2022-12-20T14:12:53;7.50;99.90
44707;DHT22;30433;45.596;8.408;2022-12-20T14:19:03;7.90;99.90
44707;DHT22;30433;45.596;8.408;2022-12-20T14:25:07;7.90;99.90
44707;DHT22;30433;45.596;8.408;2022-12-20T14:31:21;7.80;99.90
44707;DHT22;30433;45.596;8.408;2022-12-20T14:37:29;7.70;99.90
44707;DHT22;30433;45.596;8.408;2022-12-20T14:43:32;7.50;99.90
44707;DHT22;30433;45.596;8.408;2022-12-20T14:49:34;7.30;99.90
44707;DHT22;30433;45.596;8.408;2022-12-20T14:55:42;7.40;99.90
44707;DHT22;30433;45.596;8.408;2022-12-20T15:01:45;7.30;99.90
44707;DHT22;30433;45.596;8.408;2022-12-20T15:07:47;7.20;99.90
44707;DHT22;30433;45.596;8.408;2022-12-20T15:13:51;7.10;99.90
44707;DHT22;30433;45.596;8.408;2022-12-20T15:19:53;6.90;99.90
44707;DHT22;30433;45.596;8.408;2022-12-20T15:25:55;6.80;99.90
44707;DHT22;30433;45.596;8.408;2022-12-20T15:32:02;6.60;99.90
44707;DHT22;30433;45.596;8.408;2022-12-20T15:38:04;6.40;99.90
44707;DHT22;30433;45.596;8.408;2022-12-20T15:44:09;6.30;99.90
44707;DHT22;30433;45.596;8.408;2022-12-20T15:50:13;6.00;99.90
44707;DHT22;30433;45.596;8.408;2022-12-20T15:56:16;5.90;99.90
44707;DHT22;30433;45.596;8.408;2022-12-20T16:02:19;5.60;99.90
44707;DHT22;30433;45.596;8.408;2022-12-20T16:08:23;5.60;99.90
44707;DHT22;30433;45.596;8.408;2022-12-20T16:14:25;5.30;99.90
44707;DHT22;30433;45.596;8.408;2022-12-20T16:20:27;5.10;99.90
44707;DHT22;30433;45.596;8.408;2022-12-20T16:26:30;5.20;99.90
44707;DHT22;30433;45.596;8.408;2022-12-20T16:32:32;4.90;99.90
44707;DHT22;30433;45.596;8.408;2022-12-20T16:38:34;4.60;99.90
44707;DHT22;30433;45.596;8.408;2022-12-20T16:44:37;4.60;99.90
44707;DHT22;30433;45.596;8.408;2022-12-20T16:50:42;4.50;99.90
44707;DHT22;30433;45.596;8.408;2022-12-20T16:56:44;4.70;99.90
44707;DHT22;30433;45.596;8.408;2022-12-20T17:02:48;4.20;99.90
44707;DHT22;30433;45.596;8.408;2022-12-20T17:08:51;4.30;99.90
44707;DHT22;30433;45.596;8.408;2022-12-20T17:14:52;4.20;99.90
44707;DHT22;30433;45.596;8.408;2022-12-20T17:20:56;3.30;99.90
44707;DHT22;30433;45.596;8.408;2022-12-20T17:26:58;3.50;99.90
44707;DHT22;30433;45.596;8.408;2022-12-20T17:33:00;3.30;99.90
44707;DHT22;30433;45.596;8.408;2022-12-20T17:39:03;2.90;99.90
44707;DHT22;30433;45.596;8.408;2022-12-20T17:45:05;3.10;99.90
44707;DHT22;30433;45.596;8.408;2022-12-20T17:51:09;3.10;99.90
44707;DHT22;30433;45.596;8.408;2022-12-20T17:57:15;3.20;99.90
44707;DHT22;30433;45.596;8.408;2022-12-20T18:03:17;3.10;99.90
44707;DHT22;30433;45.596;8.408;2022-12-20T18:09:21;3.20;99.90
44707;DHT22;30433;45.596;8.408;2022-12-20T18:15:24;3.00;99.90
44707;DHT22;30433;45.596;8.408;2022-12-20T18:21:26;3.30;99.90
44707;DHT22;30433;45.596;8.408;2022-12-20T18:27:28;2.80;99.90
44707;DHT22;30433;45.596;8.408;2022-12-20T18:33:32;2.40;99.90
44707;DHT22;30433;45.596;8.408;2022-12-20T18:39:34;2.30;99.90
44707;DHT22;30433;45.596;8.408;2022-12-20T18:45:36;2.30;99.90
44707;DHT22;30433;45.596;8.408;2022-12-20T18:51:39;2.50;99.90
44707;DHT22;30433;45.596;8.408;2022-12-20T18:57:41;1.90;99.90
44707;DHT22;30433;45.596;8.408;2022-12-20T19:03:43;2.00;99.90
44707;DHT22;30433;45.596;8.408;2022-12-20T19:09:46;2.50;99.90
44707;DHT22;30433;45.596;8.408;2022-12-20T19:15:48;2.30;99.90
44707;DHT22;30433;45.596;8.408;2022-12-20T19:21:50;1.60;99.90
44707;DHT22;30433;45.596;8.408;2022-12-20T19:27:54;2.20;99.90
44707;DHT22;30433;45.596;8.408;2022-12-20T19:33:57;2.00;99.90
44707;DHT22;30433;45.596;8.408;2022-12-20T19:39:59;1.50;99.90
44707;DHT22;30433;45.596;8.408;2022-12-20T19:46:02;2.00;99.90
44707;DHT22;30433;45.596;8.408;2022-12-20T19:52:04;2.20;99.90
44707;DHT22;30433;45.596;8.408;2022-12-20T19:58:06;1.90;99.90
44707;DHT22;30433;45.596;8.408;2022-12-20T20:04:10;1.80;99.90
44707;DHT22;30433;45.596;8.408;2022-12-20T20:10:12;1.30;99.90
44707;DHT22;30433;45.596;8.408;2022-12-20T20:16:14;1.60;99.90
44707;DHT22;30433;45.596;8.408;2022-12-20T20:22:17;1.70;99.90
44707;DHT22;30433;45.596;8.408;2022-12-20T20:28:19;1.30;99.90
44707;DHT22;30433;45.596;8.408;2022-12-20T20:34:21;1.70;99.90
44707;DHT22;30433;45.596;8.408;2022-12-20T20:40:25;1.70;99.90
44707;DHT22;30433;45.596;8.408;2022-12-20T20:46:27;1.20;99.90
44707;DHT22;30433;45.596;8.408;2022-12-20T20:52:29;1.70;99.90
44707;DHT22;30433;45.596;8.408;2022-12-20T20:58:32;1.90;99.90
44707;DHT22;30433;45.596;8.408;2022-12-20T21:04:35;1.60;99.90
44707;DHT22;30433;45.596;8.408;2022-12-20T21:10:36;1.60;99.90
44707;DHT22;30433;45.596;8.408;2022-12-20T21:16:40;1.50;99.90
44707;DHT22;30433;45.596;8.408;2022-12-20T21:22:42;1.40;99.90
44707;DHT22;30433;45.596;8.408;2022-12-20T21:28:44;1.90;99.90
44707;DHT22;30433;45.596;8.408;2022-12-20T21:34:48;1.90;99.90
44707;DHT22;30433;45.596;8.408;2022-12-20T21:40:50;2.00;99.90
44707;DHT22;30433;45.596;8.408;2022-12-20T21:46:52;1.60;99.90
44707;DHT22;30433;45.596;8.408;2022-12-20T21:52:56;2.30;99.90
44707;DHT22;30433;45.596;8.408;2022-12-20T21:58:58;2.20;99.90
44707;DHT22;30433;45.596;8.408;2022-12-20T22:05:01;2.30;99.90
44707;DHT22;30433;45.596;8.408;2022-12-20T22:11:06;2.40;99.90
44707;DHT22;30433;45.596;8.408;2022-12-20T22:17:09;2.10;99.90
44707;DHT22;30433;45.596;8.408;2022-12-20T22:23:10;2.30;99.90
44707;DHT22;30433;45.596;8.408;2022-12-20T22:29:14;2.20;99.90
44707;DHT22;30433;45.596;8.408;2022-12-20T22:35:16;2.20;99.90
44707;DHT22;30433;45.596;8.408;2022-12-20T22:41:18;2.20;99.90
44707;DHT22;30433;45.596;8.408;2022-12-20T22:47:23;2.10;99.90
44707;DHT22;30433;45.596;8.408;2022-12-20T22:53:25;2.30;99.90
44707;DHT22;30433;45.596;8.408;2022-12-20T22:59:26;1.90;99.90
44707;DHT22;30433;45.596;8.408;2022-12-20T23:05:30;2.30;99.90
44707;DHT22;30433;45.596;8.408;2022-12-20T23:11:32;2.30;99.90
44707;DHT22;30433;45.596;8.408;2022-12-20T23:17:51;2.40;99.90
44707;DHT22;30433;45.596;8.408;2022-12-20T23:23:54;2.30;99.90
44707;DHT22;30433;45.596;8.408;2022-12-20T23:29:56;2.50;99.90
44707;DHT22;30433;45.596;8.408;2022-12-20T23:35:58;2.40;99.90
44707;DHT22;30433;45.596;8.408;2022-12-20T23:42:02;2.60;99.90
44707;DHT22;30433;45.596;8.408;2022-12-20T23:48:04;2.80;99.90
44707;DHT22;30433;45.596;8.408;2022-12-20T23:54:07;2.70;99.90
